sensor_id;sensor_type;location;lat;lon;timestamp;P1;durP1;ratioP1;P2;durP2;ratioP2
57856;SDS011;43683;48.650;9.290;2023-04-03T00:01:10;2.53;;;2.17;;
57856;SDS011;43683;48.650;9.290;2023-04-03T00:03:36;3.38;;;2.88;;
57856;SDS011;43683;48.650;9.290;2023-04-03T00:06:02;4.85;;;3.00;;
57856;SDS011;43683;48.650;9.290;2023-04-03T00:08:28;4.20;;;2.80;;
57856;SDS011;43683;48.650;9.290;2023-04-03T00:10:56;3.85;;;3.10;;
57856;SDS011;43683;48.650;9.290;2023-04-03T00:13:21;4.07;;;2.90;;
57856;SDS011;43683;48.650;9.290;2023-04-03T00:15:47;3.58;;;2.85;;
57856;SDS011;43683;48.650;9.290;2023-04-03T00:18:13;3.55;;;2.83;;
57856;SDS011;43683;48.650;9.290;2023-04-03T00:20:39;3.70;;;2.83;;
57856;SDS011;43683;48.650;9.290;2023-04-03T00:23:04;4.05;;;2.97;;
57856;SDS011;43683;48.650;9.290;2023-04-03T00:25:30;3.30;;;2.53;;
57856;SDS011;43683;48.650;9.290;2023-04-03T00:27:56;3.78;;;2.80;;
57856;SDS011;43683;48.650;9.290;2023-04-03T00:30:21;7.53;;;3.58;;
57856;SDS011;43683;48.650;9.290;2023-04-03T00:32:49;6.38;;;3.45;;
57856;SDS011;43683;48.650;9.290;2023-04-03T00:35:15;3.30;;;2.90;;
57856;SDS011;43683;48.650;9.290;2023-04-03T00:37:42;3.53;;;2.65;;
57856;SDS011;43683;48.650;9.290;2023-04-03T00:40:08;4.53;;;2.63;;
57856;SDS011;43683;48.650;9.290;2023-04-03T00:42:38;3.22;;;2.70;;
57856;SDS011;43683;48.650;9.290;2023-04-03T00:47:31;3.05;;;2.72;;
57856;SDS011;43683;48.650;9.290;2023-04-03T00:49:57;6.38;;;3.30;;
57856;SDS011;43683;48.650;9.290;2023-04-03T00:52:23;4.63;;;3.20;;
57856;SDS011;43683;48.650;9.290;2023-04-03T00:54:54;3.75;;;2.63;;
57856;SDS011;43683;48.650;9.290;2023-04-03T00:57:22;4.28;;;2.78;;
57856;SDS011;43683;48.650;9.290;2023-04-03T00:59:50;5.00;;;2.90;;
57856;SDS011;43683;48.650;9.290;2023-04-03T01:02:20;6.50;;;3.28;;
57856;SDS011;43683;48.650;9.290;2023-04-03T01:04:46;4.35;;;2.80;;
57856;SDS011;43683;48.650;9.290;2023-04-03T01:07:13;4.55;;;3.10;;
57856;SDS011;43683;48.650;9.290;2023-04-03T01:09:41;4.18;;;3.08;;
57856;SDS011;43683;48.650;9.290;2023-04-03T01:12:21;4.15;;;2.90;;
57856;SDS011;43683;48.650;9.290;2023-04-03T01:14:52;3.67;;;2.72;;
57856;SDS011;43683;48.650;9.290;2023-04-03T01:25:35;3.92;;;2.80;;
57856;SDS011;43683;48.650;9.290;2023-04-03T01:28:03;3.83;;;3.10;;
57856;SDS011;43683;48.650;9.290;2023-04-03T01:33:25;3.47;;;2.75;;
57856;SDS011;43683;48.650;9.290;2023-04-03T01:35:51;3.85;;;2.70;;
57856;SDS011;43683;48.650;9.290;2023-04-03T01:38:16;4.88;;;3.00;;
57856;SDS011;43683;48.650;9.290;2023-04-03T01:40:42;4.93;;;2.97;;
57856;SDS011;43683;48.650;9.290;2023-04-03T01:43:08;4.40;;;2.85;;
57856;SDS011;43683;48.650;9.290;2023-04-03T01:45:34;5.15;;;2.90;;
57856;SDS011;43683;48.650;9.290;2023-04-03T01:47:59;4.18;;;2.80;;
57856;SDS011;43683;48.650;9.290;2023-04-03T01:50:25;4.45;;;3.00;;
57856;SDS011;43683;48.650;9.290;2023-04-03T01:52:50;4.70;;;3.38;;
57856;SDS011;43683;48.650;9.290;2023-04-03T01:55:16;3.67;;;2.72;;
57856;SDS011;43683;48.650;9.290;2023-04-03T01:57:41;5.00;;;2.85;;
57856;SDS011;43683;48.650;9.290;2023-04-03T02:00:07;5.22;;;2.95;;
57856;SDS011;43683;48.650;9.290;2023-04-03T02:02:34;4.07;;;3.33;;
57856;SDS011;43683;48.650;9.290;2023-04-03T02:04:59;4.15;;;2.80;;
57856;SDS011;43683;48.650;9.290;2023-04-03T02:07:25;4.32;;;2.72;;
57856;SDS011;43683;48.650;9.290;2023-04-03T02:09:51;3.83;;;2.60;;
57856;SDS011;43683;48.650;9.290;2023-04-03T02:12:16;5.30;;;3.00;;
57856;SDS011;43683;48.650;9.290;2023-04-03T02:14:42;5.38;;;2.83;;
57856;SDS011;43683;48.650;9.290;2023-04-03T02:17:07;4.63;;;3.03;;
57856;SDS011;43683;48.650;9.290;2023-04-03T02:19:36;3.97;;;3.25;;
57856;SDS011;43683;48.650;9.290;2023-04-03T02:22:02;4.70;;;3.38;;
57856;SDS011;43683;48.650;9.290;2023-04-03T02:24:28;5.47;;;3.28;;
57856;SDS011;43683;48.650;9.290;2023-04-03T02:26:54;4.43;;;2.92;;
57856;SDS011;43683;48.650;9.290;2023-04-03T02:29:20;6.75;;;3.25;;
57856;SDS011;43683;48.650;9.290;2023-04-03T02:31:45;5.28;;;2.70;;
57856;SDS011;43683;48.650;9.290;2023-04-03T02:34:11;3.65;;;3.00;;
57856;SDS011;43683;48.650;9.290;2023-04-03T02:36:37;2.92;;;2.60;;
57856;SDS011;43683;48.650;9.290;2023-04-03T02:39:02;4.40;;;2.90;;
57856;SDS011;43683;48.650;9.290;2023-04-03T02:41:28;4.88;;;2.92;;
57856;SDS011;43683;48.650;9.290;2023-04-03T02:44:00;4.63;;;3.20;;
57856;SDS011;43683;48.650;9.290;2023-04-03T02:46:29;4.43;;;2.83;;
57856;SDS011;43683;48.650;9.290;2023-04-03T02:48:55;5.47;;;3.28;;
57856;SDS011;43683;48.650;9.290;2023-04-03T02:51:20;5.10;;;2.88;;
57856;SDS011;43683;48.650;9.290;2023-04-03T02:53:47;4.73;;;2.90;;
57856;SDS011;43683;48.650;9.290;2023-04-03T02:56:13;4.03;;;2.78;;
57856;SDS011;43683;48.650;9.290;2023-04-03T02:58:39;5.70;;;3.00;;
57856;SDS011;43683;48.650;9.290;2023-04-03T03:01:05;4.03;;;2.72;;
57856;SDS011;43683;48.650;9.290;2023-04-03T03:03:30;3.25;;;2.83;;
57856;SDS011;43683;48.650;9.290;2023-04-03T03:06:06;3.85;;;2.88;;
57856;SDS011;43683;48.650;9.290;2023-04-03T03:08:33;2.60;;;2.40;;
57856;SDS011;43683;48.650;9.290;2023-04-03T03:11:00;3.45;;;2.80;;
57856;SDS011;43683;48.650;9.290;2023-04-03T03:13:25;5.53;;;3.25;;
57856;SDS011;43683;48.650;9.290;2023-04-03T03:15:51;5.70;;;2.83;;
57856;SDS011;43683;48.650;9.290;2023-04-03T03:18:17;4.40;;;2.97;;
57856;SDS011;43683;48.650;9.290;2023-04-03T03:20:42;5.63;;;3.20;;
57856;SDS011;43683;48.650;9.290;2023-04-03T03:23:08;4.35;;;3.17;;
57856;SDS011;43683;48.650;9.290;2023-04-03T03:25:37;3.55;;;2.50;;
57856;SDS011;43683;48.650;9.290;2023-04-03T03:28:03;4.80;;;3.13;;
57856;SDS011;43683;48.650;9.290;2023-04-03T03:30:29;6.00;;;3.17;;
57856;SDS011;43683;48.650;9.290;2023-04-03T03:32:55;3.10;;;2.70;;
57856;SDS011;43683;48.650;9.290;2023-04-03T03:35:20;4.10;;;3.25;;
57856;SDS011;43683;48.650;9.290;2023-04-03T03:37:46;5.28;;;3.05;;
57856;SDS011;43683;48.650;9.290;2023-04-03T03:40:11;5.07;;;2.72;;
57856;SDS011;43683;48.650;9.290;2023-04-03T03:42:38;5.00;;;3.00;;
57856;SDS011;43683;48.650;9.290;2023-04-03T03:45:03;6.32;;;3.08;;
57856;SDS011;43683;48.650;9.290;2023-04-03T03:47:29;3.97;;;2.80;;
57856;SDS011;43683;48.650;9.290;2023-04-03T03:49:55;3.70;;;2.95;;
57856;SDS011;43683;48.650;9.290;2023-04-03T03:52:21;4.70;;;3.13;;
57856;SDS011;43683;48.650;9.290;2023-04-03T03:54:46;5.45;;;3.20;;
57856;SDS011;43683;48.650;9.290;2023-04-03T03:57:12;4.85;;;2.60;;
57856;SDS011;43683;48.650;9.290;2023-04-03T03:59:37;5.53;;;3.38;;
57856;SDS011;43683;48.650;9.290;2023-04-03T04:02:03;2.65;;;2.25;;
57856;SDS011;43683;48.650;9.290;2023-04-03T04:04:28;4.35;;;2.90;;
57856;SDS011;43683;48.650;9.290;2023-04-03T04:06:54;4.32;;;2.72;;
57856;SDS011;43683;48.650;9.290;2023-04-03T04:09:19;2.92;;;2.47;;
57856;SDS011;43683;48.650;9.290;2023-04-03T04:11:45;4.25;;;2.78;;
57856;SDS011;43683;48.650;9.290;2023-04-03T04:14:10;3.53;;;2.80;;
57856;SDS011;43683;48.650;9.290;2023-04-03T04:16:38;4.32;;;2.75;;
57856;SDS011;43683;48.650;9.290;2023-04-03T04:19:03;3.30;;;2.50;;
57856;SDS011;43683;48.650;9.290;2023-04-03T04:21:29;5.03;;;3.13;;
57856;SDS011;43683;48.650;9.290;2023-04-03T04:23:54;4.25;;;3.30;;
57856;SDS011;43683;48.650;9.290;2023-04-03T04:26:20;3.50;;;2.88;;
57856;SDS011;43683;48.650;9.290;2023-04-03T04:28:46;3.95;;;2.65;;
57856;SDS011;43683;48.650;9.290;2023-04-03T04:31:11;3.80;;;2.88;;
57856;SDS011;43683;48.650;9.290;2023-04-03T04:33:37;3.45;;;2.30;;
57856;SDS011;43683;48.650;9.290;2023-04-03T04:36:02;4.65;;;2.78;;
57856;SDS011;43683;48.650;9.290;2023-04-03T04:38:28;4.22;;;2.72;;
57856;SDS011;43683;48.650;9.290;2023-04-03T04:40:53;2.70;;;2.50;;
57856;SDS011;43683;48.650;9.290;2023-04-03T04:43:19;3.67;;;2.65;;
57856;SDS011;43683;48.650;9.290;2023-04-03T04:45:45;3.60;;;2.72;;
57856;SDS011;43683;48.650;9.290;2023-04-03T04:48:10;3.58;;;2.55;;
57856;SDS011;43683;48.650;9.290;2023-04-03T04:50:36;3.40;;;2.50;;
57856;SDS011;43683;48.650;9.290;2023-04-03T04:53:01;3.65;;;2.80;;
57856;SDS011;43683;48.650;9.290;2023-04-03T04:55:27;4.65;;;2.75;;
57856;SDS011;43683;48.650;9.290;2023-04-03T04:57:52;3.10;;;2.65;;
57856;SDS011;43683;48.650;9.290;2023-04-03T05:00:18;5.22;;;2.60;;
57856;SDS011;43683;48.650;9.290;2023-04-03T05:02:44;3.28;;;2.90;;
57856;SDS011;43683;48.650;9.290;2023-04-03T05:05:10;3.72;;;2.50;;
57856;SDS011;43683;48.650;9.290;2023-04-03T05:07:35;4.07;;;2.75;;
57856;SDS011;43683;48.650;9.290;2023-04-03T05:10:01;4.95;;;2.42;;
57856;SDS011;43683;48.650;9.290;2023-04-03T05:12:28;3.78;;;2.42;;
57856;SDS011;43683;48.650;9.290;2023-04-03T05:14:54;2.60;;;2.20;;
57856;SDS011;43683;48.650;9.290;2023-04-03T05:17:19;3.80;;;2.65;;
57856;SDS011;43683;48.650;9.290;2023-04-03T05:19:45;3.35;;;2.67;;
57856;SDS011;43683;48.650;9.290;2023-04-03T05:22:11;2.78;;;2.55;;
57856;SDS011;43683;48.650;9.290;2023-04-03T05:24:36;2.67;;;2.08;;
57856;SDS011;43683;48.650;9.290;2023-04-03T05:27:02;4.65;;;2.60;;
57856;SDS011;43683;48.650;9.290;2023-04-03T05:29:28;3.78;;;2.63;;
57856;SDS011;43683;48.650;9.290;2023-04-03T05:31:53;3.80;;;2.35;;
57856;SDS011;43683;48.650;9.290;2023-04-03T05:34:19;4.03;;;2.60;;
57856;SDS011;43683;48.650;9.290;2023-04-03T05:36:44;3.30;;;2.40;;
57856;SDS011;43683;48.650;9.290;2023-04-03T05:39:10;3.28;;;2.47;;
57856;SDS011;43683;48.650;9.290;2023-04-03T05:41:35;2.75;;;2.30;;
57856;SDS011;43683;48.650;9.290;2023-04-03T05:44:01;3.47;;;2.38;;
57856;SDS011;43683;48.650;9.290;2023-04-03T05:46:26;3.53;;;2.35;;
57856;SDS011;43683;48.650;9.290;2023-04-03T05:48:52;2.83;;;2.35;;
57856;SDS011;43683;48.650;9.290;2023-04-03T05:51:19;2.78;;;2.58;;
57856;SDS011;43683;48.650;9.290;2023-04-03T05:53:48;4.15;;;2.58;;
57856;SDS011;43683;48.650;9.290;2023-04-03T05:56:25;4.18;;;2.50;;
57856;SDS011;43683;48.650;9.290;2023-04-03T05:58:50;2.63;;;2.17;;
57856;SDS011;43683;48.650;9.290;2023-04-03T06:01:16;2.40;;;2.20;;
57856;SDS011;43683;48.650;9.290;2023-04-03T06:03:41;4.68;;;2.60;;
57856;SDS011;43683;48.650;9.290;2023-04-03T06:06:07;5.25;;;2.88;;
57856;SDS011;43683;48.650;9.290;2023-04-03T06:08:33;2.65;;;2.13;;
57856;SDS011;43683;48.650;9.290;2023-04-03T06:10:59;2.30;;;2.20;;
57856;SDS011;43683;48.650;9.290;2023-04-03T06:13:26;2.38;;;2.17;;
57856;SDS011;43683;48.650;9.290;2023-04-03T06:15:52;2.65;;;2.30;;
57856;SDS011;43683;48.650;9.290;2023-04-03T06:18:17;3.15;;;2.17;;
57856;SDS011;43683;48.650;9.290;2023-04-03T06:20:43;3.10;;;2.20;;
57856;SDS011;43683;48.650;9.290;2023-04-03T06:23:08;3.72;;;2.53;;
57856;SDS011;43683;48.650;9.290;2023-04-03T06:25:35;3.38;;;2.40;;
57856;SDS011;43683;48.650;9.290;2023-04-03T06:28:01;4.25;;;2.45;;
57856;SDS011;43683;48.650;9.290;2023-04-03T06:30:26;3.47;;;2.30;;
57856;SDS011;43683;48.650;9.290;2023-04-03T06:32:52;3.83;;;2.33;;
57856;SDS011;43683;48.650;9.290;2023-04-03T06:35:17;5.65;;;2.70;;
57856;SDS011;43683;48.650;9.290;2023-04-03T06:37:43;3.75;;;2.10;;
57856;SDS011;43683;48.650;9.290;2023-04-03T06:40:13;2.42;;;2.22;;
57856;SDS011;43683;48.650;9.290;2023-04-03T06:42:43;3.83;;;2.28;;
57856;SDS011;43683;48.650;9.290;2023-04-03T06:45:09;2.83;;;2.15;;
57856;SDS011;43683;48.650;9.290;2023-04-03T06:47:36;3.22;;;2.25;;
57856;SDS011;43683;48.650;9.290;2023-04-03T06:50:01;3.88;;;2.60;;
57856;SDS011;43683;48.650;9.290;2023-04-03T06:52:27;4.32;;;2.72;;
57856;SDS011;43683;48.650;9.290;2023-04-03T06:54:52;4.00;;;2.38;;
57856;SDS011;43683;48.650;9.290;2023-04-03T06:57:22;2.03;;;1.83;;
57856;SDS011;43683;48.650;9.290;2023-04-03T06:59:47;2.95;;;2.33;;
57856;SDS011;43683;48.650;9.290;2023-04-03T07:02:13;4.00;;;2.60;;
57856;SDS011;43683;48.650;9.290;2023-04-03T07:04:38;4.22;;;2.10;;
57856;SDS011;43683;48.650;9.290;2023-04-03T07:07:04;2.85;;;2.50;;
57856;SDS011;43683;48.650;9.290;2023-04-03T07:09:29;2.42;;;2.17;;
57856;SDS011;43683;48.650;9.290;2023-04-03T07:11:55;2.65;;;2.10;;
57856;SDS011;43683;48.650;9.290;2023-04-03T07:14:20;3.67;;;2.45;;
57856;SDS011;43683;48.650;9.290;2023-04-03T07:16:46;3.38;;;2.40;;
57856;SDS011;43683;48.650;9.290;2023-04-03T07:19:11;2.03;;;1.85;;
57856;SDS011;43683;48.650;9.290;2023-04-03T07:21:37;3.65;;;2.20;;
57856;SDS011;43683;48.650;9.290;2023-04-03T07:24:03;4.25;;;2.13;;
57856;SDS011;43683;48.650;9.290;2023-04-03T07:26:28;3.78;;;2.58;;
57856;SDS011;43683;48.650;9.290;2023-04-03T07:28:54;2.88;;;2.05;;
57856;SDS011;43683;48.650;9.290;2023-04-03T07:31:19;3.22;;;2.10;;
57856;SDS011;43683;48.650;9.290;2023-04-03T07:33:45;3.10;;;1.90;;
57856;SDS011;43683;48.650;9.290;2023-04-03T07:36:13;3.08;;;2.33;;
57856;SDS011;43683;48.650;9.290;2023-04-03T07:38:41;2.97;;;2.03;;
57856;SDS011;43683;48.650;9.290;2023-04-03T07:41:07;3.22;;;2.20;;
57856;SDS011;43683;48.650;9.290;2023-04-03T07:43:38;2.22;;;2.03;;
57856;SDS011;43683;48.650;9.290;2023-04-03T07:46:04;3.40;;;2.10;;
57856;SDS011;43683;48.650;9.290;2023-04-03T07:48:30;4.22;;;2.22;;
57856;SDS011;43683;48.650;9.290;2023-04-03T07:50:58;2.00;;;1.90;;
57856;SDS011;43683;48.650;9.290;2023-04-03T07:53:25;2.90;;;2.03;;
57856;SDS011;43683;48.650;9.290;2023-04-03T07:55:50;3.28;;;2.30;;
57856;SDS011;43683;48.650;9.290;2023-04-03T07:58:20;3.55;;;2.50;;
57856;SDS011;43683;48.650;9.290;2023-04-03T08:00:46;2.40;;;1.92;;
57856;SDS011;43683;48.650;9.290;2023-04-03T08:03:12;4.53;;;2.70;;
57856;SDS011;43683;48.650;9.290;2023-04-03T08:05:39;2.55;;;2.08;;
57856;SDS011;43683;48.650;9.290;2023-04-03T08:08:06;3.80;;;2.30;;
57856;SDS011;43683;48.650;9.290;2023-04-03T08:10:32;5.10;;;2.60;;
57856;SDS011;43683;48.650;9.290;2023-04-03T08:12:58;3.30;;;2.35;;
57856;SDS011;43683;48.650;9.290;2023-04-03T08:15:24;4.68;;;2.60;;
57856;SDS011;43683;48.650;9.290;2023-04-03T08:17:50;2.63;;;1.90;;
57856;SDS011;43683;48.650;9.290;2023-04-03T08:20:16;4.05;;;2.50;;
57856;SDS011;43683;48.650;9.290;2023-04-03T08:22:42;3.03;;;2.05;;
57856;SDS011;43683;48.650;9.290;2023-04-03T08:25:07;2.63;;;1.83;;
57856;SDS011;43683;48.650;9.290;2023-04-03T08:27:33;2.70;;;2.10;;
57856;SDS011;43683;48.650;9.290;2023-04-03T08:29:59;4.22;;;2.35;;
57856;SDS011;43683;48.650;9.290;2023-04-03T08:32:25;2.58;;;1.90;;
57856;SDS011;43683;48.650;9.290;2023-04-03T08:34:50;4.30;;;2.55;;
57856;SDS011;43683;48.650;9.290;2023-04-03T08:37:16;2.00;;;1.83;;
57856;SDS011;43683;48.650;9.290;2023-04-03T08:39:42;2.33;;;2.03;;
57856;SDS011;43683;48.650;9.290;2023-04-03T08:42:16;2.97;;;2.20;;
57856;SDS011;43683;48.650;9.290;2023-04-03T08:45:00;4.22;;;2.42;;
57856;SDS011;43683;48.650;9.290;2023-04-03T08:47:47;2.35;;;2.15;;
57856;SDS011;43683;48.650;9.290;2023-04-03T08:50:28;2.20;;;2.00;;
57856;SDS011;43683;48.650;9.290;2023-04-03T08:53:04;3.25;;;2.60;;
57856;SDS011;43683;48.650;9.290;2023-04-03T08:55:40;3.33;;;2.28;;
57856;SDS011;43683;48.650;9.290;2023-04-03T08:58:14;2.33;;;2.00;;
57856;SDS011;43683;48.650;9.290;2023-04-03T09:00:51;3.15;;;2.10;;
57856;SDS011;43683;48.650;9.290;2023-04-03T09:03:28;2.15;;;1.90;;
57856;SDS011;43683;48.650;9.290;2023-04-03T09:06:12;2.85;;;2.10;;
57856;SDS011;43683;48.650;9.290;2023-04-03T09:09:01;3.17;;;2.28;;
57856;SDS011;43683;48.650;9.290;2023-04-03T09:14:43;3.47;;;2.20;;
57856;SDS011;43683;48.650;9.290;2023-04-03T09:17:37;2.10;;;2.00;;
57856;SDS011;43683;48.650;9.290;2023-04-03T09:20:14;2.40;;;2.20;;
57856;SDS011;43683;48.650;9.290;2023-04-03T09:22:46;2.60;;;2.30;;
57856;SDS011;43683;48.650;9.290;2023-04-03T09:25:14;3.20;;;2.37;;
57856;SDS011;43683;48.650;9.290;2023-04-03T09:27:50;3.92;;;2.25;;
57856;SDS011;43683;48.650;9.290;2023-04-03T09:30:21;7.10;;;2.40;;
57856;SDS011;43683;48.650;9.290;2023-04-03T09:32:50;3.58;;;2.15;;
57856;SDS011;43683;48.650;9.290;2023-04-03T09:35:27;3.33;;;2.38;;
57856;SDS011;43683;48.650;9.290;2023-04-03T09:37:58;3.67;;;2.58;;
57856;SDS011;43683;48.650;9.290;2023-04-03T09:42:50;2.15;;;2.05;;
57856;SDS011;43683;48.650;9.290;2023-04-03T09:45:22;3.00;;;2.10;;
57856;SDS011;43683;48.650;9.290;2023-04-03T09:50:37;4.50;;;2.35;;
57856;SDS011;43683;48.650;9.290;2023-04-03T09:56:18;5.18;;;1.95;;
57856;SDS011;43683;48.650;9.290;2023-04-03T09:58:49;2.35;;;2.13;;
57856;SDS011;43683;48.650;9.290;2023-04-03T10:01:32;2.33;;;1.85;;
57856;SDS011;43683;48.650;9.290;2023-04-03T10:04:15;2.47;;;1.88;;
57856;SDS011;43683;48.650;9.290;2023-04-03T10:06:45;2.25;;;2.03;;
57856;SDS011;43683;48.650;9.290;2023-04-03T10:09:20;3.08;;;2.20;;
57856;SDS011;43683;48.650;9.290;2023-04-03T10:14:32;2.28;;;1.80;;
57856;SDS011;43683;48.650;9.290;2023-04-03T10:17:09;2.28;;;1.58;;
57856;SDS011;43683;48.650;9.290;2023-04-03T10:19:54;2.47;;;1.90;;
57856;SDS011;43683;48.650;9.290;2023-04-03T10:22:33;3.03;;;1.50;;
57856;SDS011;43683;48.650;9.290;2023-04-03T10:25:32;2.58;;;1.80;;
57856;SDS011;43683;48.650;9.290;2023-04-03T10:30:40;1.77;;;1.60;;
57856;SDS011;43683;48.650;9.290;2023-04-03T10:36:16;2.03;;;1.83;;
57856;SDS011;43683;48.650;9.290;2023-04-03T10:44:31;2.08;;;1.52;;
57856;SDS011;43683;48.650;9.290;2023-04-03T10:49:51;2.35;;;1.70;;
57856;SDS011;43683;48.650;9.290;2023-04-03T10:52:47;1.45;;;1.35;;
57856;SDS011;43683;48.650;9.290;2023-04-03T10:55:36;1.73;;;1.60;;
57856;SDS011;43683;48.650;9.290;2023-04-03T10:58:08;2.08;;;1.90;;
57856;SDS011;43683;48.650;9.290;2023-04-03T11:00:59;2.85;;;2.33;;
57856;SDS011;43683;48.650;9.290;2023-04-03T11:03:31;2.17;;;1.80;;
57856;SDS011;43683;48.650;9.290;2023-04-03T11:06:01;1.88;;;1.73;;
57856;SDS011;43683;48.650;9.290;2023-04-03T11:11:17;2.25;;;1.70;;
57856;SDS011;43683;48.650;9.290;2023-04-03T11:16:27;3.00;;;2.10;;
57856;SDS011;43683;48.650;9.290;2023-04-03T11:19:08;3.75;;;1.80;;
57856;SDS011;43683;48.650;9.290;2023-04-03T11:21:46;3.33;;;2.03;;
57856;SDS011;43683;48.650;9.290;2023-04-03T11:24:33;4.03;;;2.45;;
57856;SDS011;43683;48.650;9.290;2023-04-03T11:27:03;2.80;;;1.98;;
57856;SDS011;43683;48.650;9.290;2023-04-03T11:29:31;2.13;;;1.83;;
57856;SDS011;43683;48.650;9.290;2023-04-03T11:34:52;3.90;;;2.08;;
57856;SDS011;43683;48.650;9.290;2023-04-03T11:37:34;3.78;;;2.20;;
57856;SDS011;43683;48.650;9.290;2023-04-03T11:40:24;3.63;;;2.00;;
57856;SDS011;43683;48.650;9.290;2023-04-03T11:42:54;2.38;;;1.90;;
57856;SDS011;43683;48.650;9.290;2023-04-03T11:45:34;2.17;;;2.00;;
57856;SDS011;43683;48.650;9.290;2023-04-03T11:50:45;3.38;;;1.98;;
57856;SDS011;43683;48.650;9.290;2023-04-03T11:58:17;2.67;;;1.70;;
57856;SDS011;43683;48.650;9.290;2023-04-03T12:08:38;3.33;;;2.50;;
57856;SDS011;43683;48.650;9.290;2023-04-03T12:13:42;4.22;;;2.17;;
57856;SDS011;43683;48.650;9.290;2023-04-03T12:19:03;3.33;;;1.88;;
57856;SDS011;43683;48.650;9.290;2023-04-03T12:29:33;2.63;;;1.65;;
57856;SDS011;43683;48.650;9.290;2023-04-03T12:35:10;1.92;;;1.70;;
57856;SDS011;43683;48.650;9.290;2023-04-03T12:40:47;4.18;;;1.77;;
57856;SDS011;43683;48.650;9.290;2023-04-03T12:46:28;2.28;;;1.73;;
57856;SDS011;43683;48.650;9.290;2023-04-03T12:52:16;2.70;;;1.65;;
57856;SDS011;43683;48.650;9.290;2023-04-03T12:54:47;3.90;;;1.73;;
57856;SDS011;43683;48.650;9.290;2023-04-03T12:57:18;2.10;;;1.80;;
57856;SDS011;43683;48.650;9.290;2023-04-03T12:59:45;1.65;;;1.50;;
57856;SDS011;43683;48.650;9.290;2023-04-03T13:02:31;1.70;;;1.60;;
57856;SDS011;43683;48.650;9.290;2023-04-03T13:05:07;2.88;;;1.85;;
57856;SDS011;43683;48.650;9.290;2023-04-03T13:07:38;2.58;;;1.98;;
57856;SDS011;43683;48.650;9.290;2023-04-03T13:13:19;3.40;;;1.90;;
57856;SDS011;43683;48.650;9.290;2023-04-03T13:15:28;3.90;;;2.00;;
57856;SDS011;43683;48.650;9.290;2023-04-03T13:17:55;1.83;;;1.67;;
57856;SDS011;43683;48.650;9.290;2023-04-03T13:20:31;2.15;;;1.90;;
57856;SDS011;43683;48.650;9.290;2023-04-03T13:23:07;2.65;;;1.73;;
57856;SDS011;43683;48.650;9.290;2023-04-03T13:25:36;1.80;;;1.70;;
57856;SDS011;43683;48.650;9.290;2023-04-03T13:28:06;2.17;;;1.50;;
57856;SDS011;43683;48.650;9.290;2023-04-03T13:30:33;2.08;;;1.73;;
57856;SDS011;43683;48.650;9.290;2023-04-03T13:33:05;4.70;;;2.00;;
57856;SDS011;43683;48.650;9.290;2023-04-03T13:35:46;2.10;;;1.38;;
57856;SDS011;43683;48.650;9.290;2023-04-03T13:40:47;1.52;;;1.40;;
57856;SDS011;43683;48.650;9.290;2023-04-03T13:43:21;3.22;;;1.80;;
57856;SDS011;43683;48.650;9.290;2023-04-03T13:46:32;3.30;;;2.03;;
57856;SDS011;43683;48.650;9.290;2023-04-03T13:48:40;5.60;;;2.00;;
57856;SDS011;43683;48.650;9.290;2023-04-03T13:53:45;2.35;;;1.88;;
57856;SDS011;43683;48.650;9.290;2023-04-03T13:56:22;2.33;;;1.75;;
57856;SDS011;43683;48.650;9.290;2023-04-03T14:04:17;2.90;;;1.98;;
57856;SDS011;43683;48.650;9.290;2023-04-03T14:06:45;2.28;;;1.73;;
57856;SDS011;43683;48.650;9.290;2023-04-03T14:09:11;2.00;;;1.80;;
57856;SDS011;43683;48.650;9.290;2023-04-03T14:11:37;2.60;;;1.90;;
57856;SDS011;43683;48.650;9.290;2023-04-03T14:14:11;2.25;;;1.70;;
57856;SDS011;43683;48.650;9.290;2023-04-03T14:16:41;2.03;;;1.80;;
57856;SDS011;43683;48.650;9.290;2023-04-03T14:21:55;2.42;;;1.90;;
57856;SDS011;43683;48.650;9.290;2023-04-03T14:24:21;2.20;;;1.95;;
57856;SDS011;43683;48.650;9.290;2023-04-03T14:26:49;2.05;;;1.88;;
57856;SDS011;43683;48.650;9.290;2023-04-03T14:29:16;3.67;;;1.63;;
57856;SDS011;43683;48.650;9.290;2023-04-03T14:31:43;3.28;;;1.70;;
57856;SDS011;43683;48.650;9.290;2023-04-03T14:34:11;2.25;;;1.90;;
57856;SDS011;43683;48.650;9.290;2023-04-03T14:36:37;2.80;;;2.00;;
57856;SDS011;43683;48.650;9.290;2023-04-03T14:39:05;2.78;;;2.03;;
57856;SDS011;43683;48.650;9.290;2023-04-03T14:41:32;3.90;;;2.42;;
57856;SDS011;43683;48.650;9.290;2023-04-03T14:43:57;4.30;;;2.33;;
57856;SDS011;43683;48.650;9.290;2023-04-03T14:46:26;3.67;;;1.90;;
57856;SDS011;43683;48.650;9.290;2023-04-03T14:48:54;2.88;;;2.53;;
57856;SDS011;43683;48.650;9.290;2023-04-03T14:51:20;3.95;;;2.20;;
57856;SDS011;43683;48.650;9.290;2023-04-03T14:53:46;4.25;;;1.90;;
57856;SDS011;43683;48.650;9.290;2023-04-03T14:56:13;4.80;;;2.33;;
57856;SDS011;43683;48.650;9.290;2023-04-03T14:58:41;2.13;;;1.90;;
57856;SDS011;43683;48.650;9.290;2023-04-03T15:01:09;4.05;;;1.90;;
57856;SDS011;43683;48.650;9.290;2023-04-03T15:03:35;3.67;;;2.45;;
57856;SDS011;43683;48.650;9.290;2023-04-03T15:06:01;2.67;;;2.08;;
57856;SDS011;43683;48.650;9.290;2023-04-03T15:08:27;3.95;;;2.33;;
57856;SDS011;43683;48.650;9.290;2023-04-03T15:10:56;3.50;;;2.25;;
57856;SDS011;43683;48.650;9.290;2023-04-03T15:13:22;3.63;;;2.00;;
57856;SDS011;43683;48.650;9.290;2023-04-03T15:15:49;2.95;;;2.28;;
57856;SDS011;43683;48.650;9.290;2023-04-03T15:18:20;3.55;;;2.00;;
57856;SDS011;43683;48.650;9.290;2023-04-03T15:20:47;4.07;;;2.20;;
57856;SDS011;43683;48.650;9.290;2023-04-03T15:23:14;2.22;;;2.00;;
57856;SDS011;43683;48.650;9.290;2023-04-03T15:25:41;3.03;;;2.10;;
57856;SDS011;43683;48.650;9.290;2023-04-03T15:28:09;1.83;;;1.73;;
57856;SDS011;43683;48.650;9.290;2023-04-03T15:30:42;2.92;;;1.73;;
57856;SDS011;43683;48.650;9.290;2023-04-03T15:33:07;2.22;;;1.77;;
57856;SDS011;43683;48.650;9.290;2023-04-03T15:35:33;2.30;;;1.80;;
57856;SDS011;43683;48.650;9.290;2023-04-03T15:37:59;2.05;;;1.80;;
57856;SDS011;43683;48.650;9.290;2023-04-03T15:40:24;2.33;;;1.80;;
57856;SDS011;43683;48.650;9.290;2023-04-03T15:42:50;1.88;;;1.67;;
57856;SDS011;43683;48.650;9.290;2023-04-03T15:45:16;5.28;;;3.70;;
57856;SDS011;43683;48.650;9.290;2023-04-03T15:47:41;5.40;;;2.38;;
57856;SDS011;43683;48.650;9.290;2023-04-03T15:50:07;2.85;;;2.03;;
57856;SDS011;43683;48.650;9.290;2023-04-03T15:52:34;3.42;;;2.10;;
57856;SDS011;43683;48.650;9.290;2023-04-03T15:55:00;2.80;;;1.92;;
57856;SDS011;43683;48.650;9.290;2023-04-03T15:57:25;2.40;;;2.20;;
57856;SDS011;43683;48.650;9.290;2023-04-03T15:59:51;3.42;;;2.42;;
57856;SDS011;43683;48.650;9.290;2023-04-03T16:02:17;3.47;;;1.88;;
57856;SDS011;43683;48.650;9.290;2023-04-03T16:04:43;4.57;;;2.35;;
57856;SDS011;43683;48.650;9.290;2023-04-03T16:07:09;7.55;;;2.97;;
57856;SDS011;43683;48.650;9.290;2023-04-03T16:09:35;3.42;;;1.90;;
57856;SDS011;43683;48.650;9.290;2023-04-03T16:12:01;3.08;;;2.22;;
57856;SDS011;43683;48.650;9.290;2023-04-03T16:14:27;2.55;;;1.98;;
57856;SDS011;43683;48.650;9.290;2023-04-03T16:19:20;3.67;;;2.65;;
57856;SDS011;43683;48.650;9.290;2023-04-03T16:21:46;4.75;;;2.75;;
57856;SDS011;43683;48.650;9.290;2023-04-03T16:24:11;3.72;;;2.17;;
57856;SDS011;43683;48.650;9.290;2023-04-03T16:26:37;2.90;;;2.05;;
57856;SDS011;43683;48.650;9.290;2023-04-03T16:29:03;4.40;;;2.40;;
57856;SDS011;43683;48.650;9.290;2023-04-03T16:31:28;8.25;;;3.70;;
57856;SDS011;43683;48.650;9.290;2023-04-03T16:33:56;3.63;;;2.08;;
57856;SDS011;43683;48.650;9.290;2023-04-03T16:36:22;4.00;;;2.33;;
57856;SDS011;43683;48.650;9.290;2023-04-03T16:38:48;4.63;;;2.60;;
57856;SDS011;43683;48.650;9.290;2023-04-03T16:41:14;3.90;;;2.72;;
57856;SDS011;43683;48.650;9.290;2023-04-03T16:43:39;3.80;;;2.15;;
57856;SDS011;43683;48.650;9.290;2023-04-03T16:46:05;3.00;;;2.13;;